Time;durP1;ratioP1;P1;durP2;ratioP2;P2;SDS_P1;SDS_P2;PMS_P1;PMS_P2;Temp;Humidity;BMP_temperature;BMP_pressure;BME280_temperature;BME280_humidity;BME280_pressure;Samples;Min_cycle;Max_cycle;Signal;HPM_P1;HPM_P2
2021/12/10 00:01:04;;;;;;;50.50;20.23;;;2.50;1.00;;;;;;5036008;28;20202;-70
2021/12/10 00:03:37;;;;;;;33.27;18.23;;;2.50;1.00;;;;;;5034941;28;20456;-73
2021/12/10 00:06:10;;;;;;;51.03;19.40;;;2.50;1.00;;;;;;5035637;28;20931;-70
2021/12/10 00:08:39;;;;;;;60.77;20.13;;;2.60;1.00;;;;;;5035664;28;20987;-73
2021/12/10 00:11:12;;;;;;;47.40;20.57;;;2.60;1.00;;;;;;5035755;28;20402;-73
2021/12/10 00:13:40;;;;;;;44.90;20.10;;;2.50;1.00;;;;;;5033875;28;20476;-72
2021/12/10 00:16:06;;;;;;;43.70;17.40;;;2.60;1.00;;;;;;5035417;28;20523;-71
2021/12/10 00:18:36;;;;;;;51.00;19.40;;;2.60;1.00;;;;;;5035528;28;20430;-69
2021/12/10 00:21:04;;;;;;;53.37;22.80;;;2.60;1.00;;;;;;5035369;28;20450;-70
2021/12/10 00:23:31;;;;;;;45.50;17.90;;;2.60;1.00;;;;;;5034522;28;20394;-73
2021/12/10 00:25:58;;;;;;;39.27;19.10;;;2.60;1.00;;;;;;5034018;28;20810;-70
2021/12/10 00:28:31;;;;;;;49.90;19.27;;;2.60;1.00;;;;;;5035289;28;20409;-68
2021/12/10 00:31:16;;;;;;;38.17;19.53;;;2.60;1.00;;;;;;5034397;28;20409;-73
2021/12/10 00:33:56;;;;;;;43.23;19.63;;;2.60;1.00;;;;;;5033725;28;20504;-70
2021/12/10 00:36:22;;;;;;;42.60;21.50;;;2.50;1.00;;;;;;5035097;28;20984;-73
2021/12/10 00:38:50;;;;;;;39.60;17.30;;;2.50;1.00;;;;;;5035264;28;20460;-69
2021/12/10 00:41:17;;;;;;;32.30;17.60;;;2.50;1.00;;;;;;5035108;28;20725;-69
2021/12/10 00:43:43;;;;;;;41.63;16.63;;;2.50;1.00;;;;;;5034193;28;20403;-70
2021/12/10 00:46:09;;;;;;;42.67;19.57;;;2.50;1.00;;;;;;5034798;28;20425;-73
2021/12/10 00:48:36;;;;;;;40.77;18.23;;;2.60;1.00;;;;;;5035060;28;20402;-72
2021/12/10 00:51:04;;;;;;;35.77;18.20;;;2.60;1.00;;;;;;5034159;28;20513;-69
2021/12/10 00:53:29;;;;;;;40.37;17.97;;;2.60;1.00;;;;;;5033881;28;20838;-72
2021/12/10 00:55:55;;;;;;;50.07;17.90;;;2.60;1.00;;;;;;5033773;28;20421;-71
2021/12/10 00:58:23;;;;;;;40.33;17.73;;;2.60;1.00;;;;;;5033370;28;20175;-73
2021/12/10 01:00:53;;;;;;;34.63;17.50;;;2.60;1.00;;;;;;5034708;28;20164;-73
2021/12/10 01:03:23;;;;;;;37.43;17.80;;;2.60;1.00;;;;;;5033893;28;20432;-68
2021/12/10 01:05:51;;;;;;;34.97;15.77;;;2.60;1.00;;;;;;5033010;28;20440;-73
2021/12/10 01:08:17;;;;;;;50.33;20.73;;;2.60;1.00;;;;;;5034261;28;20472;-71
2021/12/10 01:10:58;;;;;;;43.00;16.37;;;2.60;1.00;;;;;;5034699;28;20406;-73
2021/12/10 01:13:29;;;;;;;36.93;16.00;;;2.60;1.00;;;;;;5033582;28;21004;-68
2021/12/10 01:23:39;;;;;;;38.50;17.40;;;2.60;1.00;;;;;;5034385;28;20460;-73
2021/12/10 01:25:04;;;;;;;31.67;18.27;;;2.60;1.00;;;;;;5034287;28;20483;-68
2021/12/10 01:27:33;;;;;;;42.40;18.60;;;2.70;1.00;;;;;;5034157;28;20737;-73
2021/12/10 01:30:05;;;;;;;46.73;16.50;;;2.70;1.00;;;;;;5034141;28;20406;-73
2021/12/10 01:32:37;;;;;;;36.23;15.20;;;2.60;1.00;;;;;;5033113;28;20556;-68
2021/12/10 01:35:10;;;;;;;43.20;15.83;;;2.60;1.00;;;;;;5033955;28;20818;-69
2021/12/10 01:37:36;;;;;;;57.07;18.40;;;2.70;1.00;;;;;;5034090;28;20980;-69
2021/12/10 01:40:05;;;;;;;40.13;17.40;;;2.70;1.00;;;;;;5033577;28;20438;-70
2021/12/10 01:42:45;;;;;;;46.77;16.97;;;2.70;1.00;;;;;;5032548;28;20537;-69
2021/12/10 01:45:21;;;;;;;29.73;17.30;;;2.60;1.00;;;;;;5033767;28;20469;-69
2021/12/10 01:48:00;;;;;;;32.20;16.80;;;2.60;1.00;;;;;;5033774;28;20390;-73
2021/12/10 01:50:27;;;;;;;31.23;13.23;;;2.60;1.00;;;;;;5033667;28;20429;-69
2021/12/10 01:53:01;;;;;;;30.47;16.70;;;2.60;1.00;;;;;;5032757;28;20880;-69
2021/12/10 01:55:29;;;;;;;35.73;16.67;;;2.60;1.00;;;;;;5033827;28;20425;-69
2021/12/10 01:57:57;;;;;;;53.97;17.97;;;2.60;1.00;;;;;;5033708;28;20395;-68
2021/12/10 02:00:28;;;;;;;46.60;17.00;;;2.60;1.00;;;;;;5032885;28;20757;-73
2021/12/10 02:02:53;;;;;;;39.10;18.50;;;2.60;1.00;;;;;;5031525;28;20428;-73
2021/12/10 02:05:19;;;;;;;41.97;15.83;;;2.60;1.00;;;;;;5033431;28;20430;-73
2021/12/10 02:07:46;;;;;;;43.87;16.77;;;2.60;1.00;;;;;;5033563;28;20643;-73
2021/12/10 02:10:14;;;;;;;40.80;18.10;;;2.60;1.00;;;;;;5033550;28;20481;-73
2021/12/10 02:12:40;;;;;;;36.93;15.93;;;2.60;1.00;;;;;;5032494;28;20464;-72
2021/12/10 02:15:08;;;;;;;44.03;18.30;;;2.60;1.00;;;;;;5032212;28;20413;-68
2021/12/10 02:17:36;;;;;;;40.07;19.10;;;2.60;1.00;;;;;;5033081;28;20167;-68
2021/12/10 02:20:14;;;;;;;31.80;16.80;;;2.60;1.00;;;;;;5033056;28;20406;-69
2021/12/10 02:22:39;;;;;;;43.83;18.30;;;2.50;1.00;;;;;;5032405;28;20402;-73
2021/12/10 02:25:06;;;;;;;39.37;18.17;;;2.60;1.00;;;;;;5031943;28;20990;-73
2021/12/10 02:27:33;;;;;;;39.63;17.37;;;2.70;1.00;;;;;;5033350;28;20168;-68
2021/12/10 02:29:59;;;;;;;40.07;18.30;;;2.70;1.00;;;;;;5033241;28;20390;-69
2021/12/10 02:32:26;;;;;;;42.43;18.90;;;2.60;1.00;;;;;;5032332;28;20468;-68
2021/12/10 02:34:53;;;;;;;45.13;19.57;;;2.70;1.00;;;;;;5033139;28;20853;-73
2021/12/10 02:37:19;;;;;;;28.33;15.00;;;2.70;1.00;;;;;;5033058;28;20418;-68
2021/12/10 02:39:45;;;;;;;49.50;18.23;;;2.60;1.00;;;;;;5031600;28;20893;-73
2021/12/10 02:42:11;;;;;;;33.10;17.07;;;2.50;1.00;;;;;;5032413;28;20403;-69
2021/12/10 02:44:37;;;;;;;39.27;16.73;;;2.50;1.00;;;;;;5033069;28;20409;-69
2021/12/10 02:47:03;;;;;;;36.37;16.87;;;2.50;1.00;;;;;;5031967;28;20199;-68
2021/12/10 02:49:30;;;;;;;51.37;18.20;;;2.50;1.00;;;;;;5033225;28;20423;-74
2021/12/10 02:51:56;;;;;;;56.23;20.80;;;2.50;1.00;;;;;;5032960;28;20407;-73
2021/12/10 02:54:33;;;;;;;43.47;19.27;;;2.50;1.00;;;;;;5033552;28;20545;-69
2021/12/10 02:56:59;;;;;;;35.83;17.33;;;2.60;1.00;;;;;;5036111;28;20442;-73
2021/12/10 02:59:25;;;;;;;38.90;16.37;;;2.60;1.00;;;;;;5036929;28;20454;-73
2021/12/10 03:01:52;;;;;;;41.90;16.80;;;2.50;1.00;;;;;;5035765;28;20398;-73
2021/12/10 03:04:18;;;;;;;38.30;17.40;;;2.50;1.00;;;;;;5035230;28;20179;-70
2021/12/10 03:06:50;;;;;;;42.33;18.00;;;2.50;1.00;;;;;;5036838;28;20476;-73
2021/12/10 03:09:18;;;;;;;45.20;17.37;;;2.50;1.00;;;;;;5036850;28;20448;-73
2021/12/10 03:11:48;;;;;;;45.60;17.07;;;2.40;1.00;;;;;;5036699;28;20907;-73
2021/12/10 03:14:16;;;;;;;40.87;17.97;;;2.50;1.00;;;;;;5035196;28;20457;-69
2021/12/10 03:16:42;;;;;;;31.00;16.53;;;2.40;1.00;;;;;;5036787;28;20811;-70
2021/12/10 03:19:09;;;;;;;36.90;18.10;;;2.40;1.00;;;;;;5036675;28;20872;-70
2021/12/10 03:21:39;;;;;;;37.40;15.93;;;2.40;1.00;;;;;;5036572;28;20402;-68
2021/12/10 03:24:06;;;;;;;33.13;16.93;;;2.30;1.00;;;;;;5034497;28;20410;-72
2021/12/10 03:26:33;;;;;;;38.63;17.20;;;2.30;1.00;;;;;;5036442;28;20483;-69
2021/12/10 03:28:59;;;;;;;38.33;16.13;;;2.30;1.00;;;;;;5036441;28;20414;-73
2021/12/10 03:31:26;;;;;;;45.13;20.37;;;2.30;1.00;;;;;;5035609;28;20563;-73
2021/12/10 03:33:53;;;;;;;38.97;17.63;;;2.30;1.00;;;;;;5035453;28;20993;-72
2021/12/10 03:36:19;;;;;;;42.90;18.40;;;2.30;1.00;;;;;;5036356;28;20465;-73
2021/12/10 03:38:46;;;;;;;41.83;14.70;;;2.30;1.00;;;;;;5036202;28;20407;-71
2021/12/10 03:41:13;;;;;;;40.90;20.67;;;2.20;1.00;;;;;;5036190;28;20524;-70
2021/12/10 03:43:41;;;;;;;44.00;19.17;;;2.30;1.00;;;;;;5044638;28;20437;-73
2021/12/10 03:46:07;;;;;;;32.33;16.23;;;2.40;1.00;;;;;;5056190;28;20425;-73
2021/12/10 03:48:42;;;;;;;26.63;14.63;;;2.40;1.00;;;;;;5056033;28;20422;-73
2021/12/10 03:51:18;;;;;;;40.70;17.37;;;2.40;1.00;;;;;;5055927;28;20911;-73
2021/12/10 03:53:44;;;;;;;36.47;16.10;;;2.40;1.00;;;;;;5054884;28;20543;-70
2021/12/10 03:56:13;;;;;;;42.00;16.00;;;2.40;1.00;;;;;;5055967;28;20898;-71
2021/12/10 03:58:40;;;;;;;35.40;17.60;;;2.50;1.00;;;;;;5055938;28;20447;-69
2021/12/10 04:01:09;;;;;;;38.20;14.60;;;2.40;1.00;;;;;;5055800;28;20409;-72
2021/12/10 04:03:35;;;;;;;37.53;19.20;;;2.50;1.00;;;;;;5054755;28;20451;-73
2021/12/10 04:06:02;;;;;;;26.17;14.93;;;2.50;1.00;;;;;;5054229;28;20429;-69
2021/12/10 04:08:30;;;;;;;41.27;16.77;;;2.50;1.00;;;;;;5056034;28;20405;-70
2021/12/10 04:10:56;;;;;;;41.33;16.30;;;2.40;1.00;;;;;;5055769;28;20438;-73
2021/12/10 04:13:23;;;;;;;46.87;22.13;;;2.40;1.00;;;;;;5053463;28;20445;-73
2021/12/10 04:15:48;;;;;;;24.67;13.10;;;2.40;1.00;;;;;;5055534;28;20425;-70
2021/12/10 04:18:15;;;;;;;29.97;15.60;;;2.40;1.00;;;;;;5055488;28;20397;-70
2021/12/10 04:20:42;;;;;;;31.17;16.37;;;2.40;1.00;;;;;;5055755;28;20398;-73
2021/12/10 04:23:12;;;;;;;41.90;19.97;;;2.40;1.00;;;;;;5054566;28;20400;-70
2021/12/10 04:25:38;;;;;;;32.03;15.10;;;2.40;1.00;;;;;;5054224;28;20829;-70
2021/12/10 04:28:09;;;;;;;44.27;18.40;;;2.40;1.00;;;;;;5055333;28;20412;-69
2021/12/10 04:30:40;;;;;;;35.03;15.27;;;2.40;1.00;;;;;;5055262;28;20462;-72
2021/12/10 04:33:07;;;;;;;36.67;14.70;;;2.40;1.00;;;;;;5054243;28;20437;-69
2021/12/10 04:35:33;;;;;;;35.07;15.80;;;2.40;1.00;;;;;;5055005;28;20457;-72
2021/12/10 04:37:59;;;;;;;34.13;15.70;;;2.40;1.00;;;;;;5055037;28;20441;-69
2021/12/10 04:40:25;;;;;;;28.07;14.00;;;2.30;1.00;;;;;;5055130;28;20686;-73
2021/12/10 04:42:51;;;;;;;38.00;17.63;;;2.40;1.00;;;;;;5052856;28;20555;-73
2021/12/10 04:45:19;;;;;;;30.70;15.50;;;2.40;1.00;;;;;;5054888;28;20413;-74
2021/12/10 04:47:46;;;;;;;39.80;16.63;;;2.40;1.00;;;;;;5054821;28;20432;-73
2021/12/10 04:50:14;;;;;;;33.40;17.87;;;2.40;1.00;;;;;;5053749;28;20440;-71
2021/12/10 04:52:39;;;;;;;44.73;17.07;;;2.40;1.00;;;;;;5054077;28;20492;-69
2021/12/10 04:55:08;;;;;;;39.93;15.57;;;2.50;1.00;;;;;;5054742;28;20564;-73
2021/12/10 04:57:34;;;;;;;50.30;20.10;;;2.40;1.00;;;;;;5054585;28;20634;-70
2021/12/10 05:00:00;;;;;;;35.77;14.67;;;2.50;1.00;;;;;;5054549;28;20421;-70
2021/12/10 05:02:27;;;;;;;42.93;18.10;;;2.50;1.00;;;;;;5054089;28;20444;-69
2021/12/10 05:04:57;;;;;;;33.93;14.60;;;2.60;1.00;;;;;;5054733;28;20472;-69
2021/12/10 05:07:23;;;;;;;34.50;15.73;;;2.60;1.00;;;;;;5054651;28;20397;-73
2021/12/10 05:09:49;;;;;;;27.70;14.87;;;2.60;1.00;;;;;;5054475;28;20471;-71
2021/12/10 05:12:15;;;;;;;27.70;14.77;;;2.60;1.00;;;;;;5053496;28;20891;-73
2021/12/10 05:14:41;;;;;;;31.30;17.03;;;2.60;1.00;;;;;;5054403;28;20634;-69
2021/12/10 05:17:09;;;;;;;43.53;17.07;;;2.60;1.00;;;;;;5053957;28;20435;-70
2021/12/10 05:19:37;;;;;;;30.43;14.67;;;2.60;1.00;;;;;;5054402;28;20424;-70
2021/12/10 05:22:05;;;;;;;37.37;16.07;;;2.60;1.00;;;;;;5052097;28;20409;-73
2021/12/10 05:24:31;;;;;;;33.53;15.83;;;2.60;1.00;;;;;;5054375;28;20398;-72
2021/12/10 05:26:58;;;;;;;36.17;15.53;;;2.60;1.00;;;;;;5053986;28;20448;-69
2021/12/10 05:29:24;;;;;;;32.83;17.93;;;2.60;1.00;;;;;;5054090;28;20397;-69
2021/12/10 05:31:50;;;;;;;40.20;18.83;;;2.50;1.00;;;;;;5054008;28;20413;-69
2021/12/10 05:34:17;;;;;;;33.27;15.70;;;2.50;1.00;;;;;;5053234;28;20206;-73
2021/12/10 05:36:43;;;;;;;33.83;16.57;;;2.50;1.00;;;;;;5052623;28;20810;-73
2021/12/10 05:39:10;;;;;;;34.67;14.57;;;2.50;1.00;;;;;;5053972;28;20410;-72
2021/12/10 05:41:36;;;;;;;39.03;16.47;;;2.50;1.00;;;;;;5053905;28;20167;-70
2021/12/10 05:44:04;;;;;;;35.60;14.87;;;2.50;1.00;;;;;;5052873;28;20881;-72
2021/12/10 05:46:31;;;;;;;33.40;17.10;;;2.50;1.00;;;;;;5053711;28;20444;-73
2021/12/10 05:48:57;;;;;;;38.17;16.87;;;2.50;1.00;;;;;;5053733;28;20402;-69
2021/12/10 05:51:23;;;;;;;36.73;15.37;;;2.50;1.00;;;;;;5053658;28;20424;-73
2021/12/10 05:53:49;;;;;;;44.23;16.47;;;2.50;1.00;;;;;;5052813;28;20448;-72
2021/12/10 05:56:17;;;;;;;38.70;16.27;;;2.50;1.00;;;;;;5053356;28;20507;-72
2021/12/10 05:58:43;;;;;;;30.23;13.47;;;2.50;1.00;;;;;;5052296;28;20922;-69
2021/12/10 06:01:13;;;;;;;60.07;18.37;;;2.40;1.00;;;;;;5053771;28;20432;-73
2021/12/10 06:03:41;;;;;;;26.30;14.13;;;2.50;1.00;;;;;;5052705;28;20401;-71
2021/12/10 06:06:08;;;;;;;37.67;16.07;;;2.50;1.00;;;;;;5053301;28;20420;-73
2021/12/10 06:08:35;;;;;;;32.10;16.47;;;2.50;1.00;;;;;;5052300;28;20413;-69
2021/12/10 06:11:02;;;;;;;32.90;16.37;;;2.50;1.00;;;;;;5052152;28;20979;-72
2021/12/10 06:13:28;;;;;;;30.57;16.33;;;2.50;1.00;;;;;;5051054;28;20544;-69
2021/12/10 06:15:54;;;;;;;31.70;15.37;;;2.50;1.00;;;;;;5053280;28;20429;-71
2021/12/10 06:18:20;;;;;;;26.80;14.77;;;2.50;1.00;;;;;;5053110;28;20437;-69
2021/12/10 06:20:50;;;;;;;33.37;16.10;;;2.50;1.00;;;;;;5053091;28;20448;-73
2021/12/10 06:23:16;;;;;;;37.93;18.10;;;2.50;1.00;;;;;;5052077;28;20420;-73
2021/12/10 06:25:42;;;;;;;37.67;17.23;;;2.60;1.00;;;;;;5053127;28;20429;-69
2021/12/10 06:28:08;;;;;;;29.90;14.53;;;2.60;1.00;;;;;;5052538;28;20405;-72
2021/12/10 06:30:42;;;;;;;36.00;15.47;;;2.60;1.00;;;;;;5051805;28;20862;-70
2021/12/10 06:33:12;;;;;;;29.77;15.67;;;2.70;1.00;;;;;;5052109;28;20453;-69
2021/12/10 06:35:40;;;;;;;45.57;17.50;;;2.70;1.00;;;;;;5053120;28;20417;-72
2021/12/10 06:38:06;;;;;;;27.30;15.07;;;2.60;1.00;;;;;;5053071;28;20406;-73
2021/12/10 06:40:34;;;;;;;28.87;14.20;;;2.70;1.00;;;;;;5051787;28;20409;-73
2021/12/10 06:43:00;;;;;;;26.47;14.13;;;2.60;1.00;;;;;;5052191;28;20478;-74
2021/12/10 06:45:28;;;;;;;32.13;15.47;;;2.70;1.00;;;;;;5053223;28;20429;-74
2021/12/10 06:47:58;;;;;;;37.17;14.07;;;2.70;1.00;;;;;;5053168;28;20428;-74
2021/12/10 06:50:26;;;;;;;39.43;16.03;;;2.70;1.00;;;;;;5052821;28;20414;-68
2021/12/10 06:52:53;;;;;;;34.57;16.10;;;2.70;1.00;;;;;;5051998;28;20409;-73
2021/12/10 06:55:20;;;;;;;29.67;13.60;;;2.60;1.00;;;;;;5052966;28;20479;-72
2021/12/10 06:57:46;;;;;;;29.07;15.77;;;2.60;1.00;;;;;;5052924;28;20471;-73
2021/12/10 07:00:20;;;;;;;37.10;17.07;;;2.60;1.00;;;;;;5052938;28;20397;-68
2021/12/10 07:02:46;;;;;;;44.33;15.87;;;2.60;1.00;;;;;;5051775;28;20400;-72
2021/12/10 07:05:14;;;;;;;51.63;17.40;;;2.70;1.00;;;;;;5051517;28;20475;-73
2021/12/10 07:07:40;;;;;;;38.43;14.97;;;2.70;1.00;;;;;;5052844;28;20401;-73
2021/12/10 07:10:09;;;;;;;39.07;16.67;;;2.70;1.00;;;;;;5052915;28;20429;-74
2021/12/10 07:12:36;;;;;;;27.40;14.40;;;2.60;1.00;;;;;;5051953;28;20452;-73
2021/12/10 07:15:06;;;;;;;42.63;15.60;;;2.60;1.00;;;;;;5052646;28;20496;-73
2021/12/10 07:17:32;;;;;;;31.97;15.10;;;2.60;1.00;;;;;;5052661;28;20787;-72
2021/12/10 07:19:58;;;;;;;45.53;17.47;;;2.50;1.00;;;;;;5052889;28;20408;-73
2021/12/10 07:22:23;;;;;;;39.30;15.20;;;2.50;1.00;;;;;;5050878;28;20763;-69
2021/12/10 07:24:49;;;;;;;41.97;17.90;;;2.50;1.00;;;;;;5052759;28;20171;-73
2021/12/10 07:27:15;;;;;;;50.07;17.57;;;2.50;1.00;;;;;;5052521;28;20270;-69
2021/12/10 07:29:41;;;;;;;32.43;16.00;;;2.50;1.00;;;;;;5052774;28;20947;-69
2021/12/10 07:32:08;;;;;;;45.67;18.00;;;2.40;1.00;;;;;;5051671;28;20224;-73
2021/12/10 07:34:34;;;;;;;34.70;14.37;;;2.50;1.00;;;;;;5052549;28;20599;-73
2021/12/10 07:36:59;;;;;;;48.80;18.57;;;2.40;1.00;;;;;;5052478;28;20950;-72
2021/12/10 07:39:25;;;;;;;29.70;13.77;;;2.50;1.00;;;;;;5052109;28;20432;-73
2021/12/10 07:41:51;;;;;;;39.17;16.47;;;2.50;1.00;;;;;;5055949;28;20163;-74
2021/12/10 07:44:16;;;;;;;46.30;18.53;;;2.50;1.00;;;;;;5055523;28;20174;-73
2021/12/10 07:46:42;;;;;;;42.50;19.33;;;2.50;1.00;;;;;;5055939;28;20187;-73
2021/12/10 07:49:15;;;;;;;27.57;15.83;;;2.50;1.00;;;;;;5055884;28;20584;-70
2021/12/10 07:51:44;;;;;;;33.40;15.20;;;2.60;1.00;;;;;;5056180;28;20408;-69
2021/12/10 07:54:11;;;;;;;33.33;15.80;;;2.60;1.00;;;;;;5055039;28;20453;-73
2021/12/10 07:56:37;;;;;;;34.27;17.00;;;2.60;1.00;;;;;;5054575;28;20453;-73
2021/12/10 07:59:03;;;;;;;41.30;17.60;;;2.50;1.00;;;;;;5055786;28;20425;-74
2021/12/10 08:01:30;;;;;;;45.40;18.03;;;2.50;1.00;;;;;;5055692;28;20444;-74
2021/12/10 08:04:00;;;;;;;34.20;16.23;;;2.50;1.00;;;;;;5054947;28;20390;-73
2021/12/10 08:06:28;;;;;;;44.43;16.57;;;2.60;1.00;;;;;;5055674;28;20421;-69
2021/12/10 08:08:54;;;;;;;34.23;15.20;;;2.50;1.00;;;;;;5055685;28;20398;-74
2021/12/10 08:11:20;;;;;;;29.87;15.33;;;2.50;1.00;;;;;;5055577;28;20404;-72
2021/12/10 08:13:46;;;;;;;22.47;13.23;;;2.50;1.00;;;;;;5054601;28;20551;-68
2021/12/10 08:16:12;;;;;;;29.47;14.60;;;2.60;1.00;;;;;;5055585;28;20501;-74
2021/12/10 08:18:37;;;;;;;28.63;14.70;;;2.60;1.00;;;;;;5055597;28;20636;-74
2021/12/10 08:21:04;;;;;;;39.23;14.80;;;2.70;1.00;;;;;;5055411;28;20171;-72
2021/12/10 08:23:30;;;;;;;31.97;18.93;;;2.70;1.00;;;;;;5054489;28;20559;-69
2021/12/10 08:25:56;;;;;;;40.13;16.60;;;2.70;1.00;;;;;;5055400;28;20419;-69
2021/12/10 08:28:25;;;;;;;32.30;14.70;;;2.70;1.00;;;;;;5055260;28;20764;-74
2021/12/10 08:30:52;;;;;;;33.50;14.87;;;2.80;1.00;;;;;;5054018;28;20413;-68
2021/12/10 08:33:18;;;;;;;40.73;15.47;;;2.80;1.00;;;;;;5054319;28;20524;-72
2021/12/10 08:35:52;;;;;;;37.20;16.77;;;2.70;1.00;;;;;;5055123;28;20848;-73
2021/12/10 08:38:18;;;;;;;28.10;14.57;;;2.80;1.00;;;;;;5055206;28;20163;-69
2021/12/10 08:40:55;;;;;;;35.80;16.27;;;2.80;1.00;;;;;;5055141;28;20394;-69
2021/12/10 08:43:21;;;;;;;33.23;14.80;;;2.90;1.00;;;;;;5054198;28;20432;-73
2021/12/10 08:45:47;;;;;;;49.43;17.07;;;2.90;1.00;;;;;;5054796;28;20512;-70
2021/12/10 08:48:13;;;;;;;45.93;16.60;;;2.90;1.00;;;;;;5054964;28;20421;-73
2021/12/10 08:50:40;;;;;;;36.40;16.03;;;2.90;1.00;;;;;;5054608;28;20191;-69
2021/12/10 08:53:12;;;;;;;41.93;16.80;;;2.90;1.00;;;;;;5053635;28;20481;-69
2021/12/10 08:55:47;;;;;;;36.57;16.67;;;2.90;1.00;;;;;;5054546;28;20417;-73
2021/12/10 08:58:13;;;;;;;49.20;15.40;;;2.90;1.00;;;;;;5054951;28;20484;-73
2021/12/10 09:00:41;;;;;;;28.80;15.10;;;2.90;1.00;;;;;;5053416;28;20397;-69
2021/12/10 09:03:07;;;;;;;33.10;14.47;;;2.90;1.00;;;;;;5053819;28;20405;-69
2021/12/10 09:05:34;;;;;;;41.97;16.83;;;2.90;1.00;;;;;;5054419;28;20413;-73
2021/12/10 09:08:00;;;;;;;37.87;17.20;;;2.90;1.00;;;;;;5054383;28;20416;-73
2021/12/10 09:10:32;;;;;;;38.90;16.90;;;2.90;1.00;;;;;;5054713;28;20815;-73
2021/12/10 09:12:58;;;;;;;47.50;15.87;;;2.90;1.00;;;;;;5053535;28;20490;-69
2021/12/10 09:15:26;;;;;;;36.83;16.40;;;2.90;1.00;;;;;;5054514;28;20422;-69
2021/12/10 09:17:53;;;;;;;35.20;17.30;;;2.90;1.00;;;;;;5054292;28;20830;-69
2021/12/10 09:20:25;;;;;;;32.67;14.30;;;3.00;1.00;;;;;;5054401;28;20447;-73
2021/12/10 09:22:51;;;;;;;30.93;15.07;;;3.10;1.00;;;;;;5053566;28;20408;-73
2021/12/10 09:25:17;;;;;;;30.23;15.60;;;3.10;1.00;;;;;;5054267;28;20479;-68
2021/12/10 09:27:43;;;;;;;34.43;16.83;;;3.10;1.00;;;;;;5054146;28;20467;-68
2021/12/10 09:30:12;;;;;;;31.90;15.27;;;3.20;1.00;;;;;;5054171;28;20409;-73
2021/12/10 09:32:38;;;;;;;36.93;16.17;;;3.20;1.00;;;;;;5053241;28;20471;-69
2021/12/10 09:35:07;;;;;;;41.87;17.40;;;3.10;1.00;;;;;;5053698;28;20463;-69
2021/12/10 09:37:35;;;;;;;39.90;13.60;;;3.20;1.00;;;;;;5054052;28;21006;-69
2021/12/10 09:40:07;;;;;;;45.10;13.80;;;3.10;1.00;;;;;;5053646;28;20390;-69
2021/12/10 09:42:33;;;;;;;36.33;17.60;;;3.20;1.00;;;;;;5052825;28;20408;-69
2021/12/10 09:44:59;;;;;;;36.20;17.97;;;3.20;1.00;;;;;;5053649;28;20825;-69
2021/12/10 09:47:24;;;;;;;26.07;14.23;;;3.20;1.00;;;;;;5053841;28;20173;-73
2021/12/10 09:49:55;;;;;;;44.97;18.50;;;3.30;1.00;;;;;;5053712;28;20425;-74
2021/12/10 09:52:23;;;;;;;31.60;15.67;;;3.30;1.00;;;;;;5052856;28;20170;-69
2021/12/10 09:54:49;;;;;;;45.23;16.60;;;3.30;1.00;;;;;;5053663;28;20544;-70
2021/12/10 09:57:25;;;;;;;26.60;13.00;;;3.30;1.00;;;;;;5053631;28;20496;-70
2021/12/10 09:59:54;;;;;;;26.90;14.43;;;3.30;1.00;;;;;;5053409;28;20487;-73
2021/12/10 10:02:21;;;;;;;33.70;14.67;;;3.30;1.00;;;;;;5052347;28;20734;-73
2021/12/10 10:04:50;;;;;;;34.17;17.17;;;3.30;1.00;;;;;;5053641;28;20403;-69
2021/12/10 10:07:23;;;;;;;34.30;14.30;;;3.30;1.00;;;;;;5053605;28;20417;-74
2021/12/10 10:09:52;;;;;;;32.43;13.83;;;3.40;1.00;;;;;;5053533;28;20401;-73
2021/12/10 10:12:32;;;;;;;35.03;18.80;;;3.40;1.00;;;;;;5052487;28;21047;-70
2021/12/10 10:15:00;;;;;;;32.57;14.60;;;3.50;1.00;;;;;;5053258;28;20458;-70
2021/12/10 10:17:26;;;;;;;27.53;15.90;;;3.40;1.00;;;;;;5053376;28;20398;-70
2021/12/10 10:19:53;;;;;;;34.97;16.13;;;3.40;1.00;;;;;;5053042;28;20400;-70
2021/12/10 10:22:23;;;;;;;30.53;13.87;;;3.40;1.00;;;;;;5052364;28;20739;-70
2021/12/10 10:24:49;;;;;;;34.40;14.30;;;3.50;1.00;;;;;;5053328;28;20406;-70
2021/12/10 10:27:33;;;;;;;34.67;15.50;;;3.50;1.00;;;;;;5053089;28;20511;-68
2021/12/10 10:30:06;;;;;;;33.93;15.27;;;3.60;1.00;;;;;;5053451;28;20471;-73
2021/12/10 10:32:34;;;;;;;28.80;15.33;;;3.60;1.00;;;;;;5052176;28;20412;-69
2021/12/10 10:35:07;;;;;;;36.90;14.47;;;3.60;1.00;;;;;;5053045;28;20449;-73
2021/12/10 10:37:34;;;;;;;27.30;14.47;;;3.60;1.00;;;;;;5052760;28;20551;-73
2021/12/10 10:40:00;;;;;;;29.27;14.67;;;3.70;1.00;;;;;;5053289;28;20394;-69
2021/12/10 10:42:30;;;;;;;35.73;15.50;;;3.60;1.00;;;;;;5050801;28;20408;-73
2021/12/10 10:45:02;;;;;;;41.90;16.30;;;3.60;1.00;;;;;;5053367;28;20526;-73
2021/12/10 10:47:29;;;;;;;26.30;14.47;;;3.70;1.00;;;;;;5053142;28;20402;-70
2021/12/10 10:49:58;;;;;;;33.73;14.20;;;3.80;1.00;;;;;;5053022;28;20426;-73
2021/12/10 10:52:34;;;;;;;30.07;14.60;;;3.80;1.00;;;;;;5052016;28;20456;-73
2021/12/10 10:55:25;;;;;;;39.17;16.67;;;3.90;1.00;;;;;;5052681;28;20453;-73
2021/12/10 10:57:57;;;;;;;34.73;16.70;;;4.00;1.00;;;;;;5051703;28;20405;-70
2021/12/10 11:00:29;;;;;;;27.13;12.83;;;4.10;1.00;;;;;;5051700;28;20804;-73
2021/12/10 11:03:03;;;;;;;37.70;14.10;;;4.00;1.00;;;;;;5051914;28;20390;-74
2021/12/10 11:05:29;;;;;;;32.80;14.33;;;4.00;1.00;;;;;;5052991;28;20955;-69
2021/12/10 11:07:58;;;;;;;28.83;14.00;;;4.00;1.00;;;;;;5053006;28;20410;-70
2021/12/10 11:10:31;;;;;;;36.37;15.93;;;3.90;1.00;;;;;;5052837;28;20471;-73
2021/12/10 11:13:21;;;;;;;27.23;11.90;;;4.00;1.00;;;;;;5051757;28;20466;-71
2021/12/10 11:16:05;;;;;;;30.73;15.00;;;4.00;1.00;;;;;;5055604;28;20449;-71
2021/12/10 11:19:13;;;;;;;29.20;13.03;;;4.00;1.00;;;;;;5056571;28;20481;-73
2021/12/10 11:22:13;;;;;;;29.47;13.83;;;4.00;1.00;;;;;;5052009;28;20420;-75
2021/12/10 11:24:46;;;;;;;25.77;12.43;;;4.00;1.00;;;;;;5051823;28;20463;-70
2021/12/10 11:27:13;;;;;;;31.13;12.37;;;4.00;1.00;;;;;;5056434;28;20772;-69
2021/12/10 11:30:02;;;;;;;26.43;13.40;;;4.10;1.00;;;;;;5056402;28;20412;-74
2021/12/10 11:32:54;;;;;;;26.40;11.80;;;4.20;1.00;;;;;;5055148;28;20398;-69
2021/12/10 11:35:32;;;;;;;29.90;12.90;;;4.20;1.00;;;;;;5056176;28;20549;-70
2021/12/10 11:38:08;;;;;;;29.87;15.27;;;4.20;1.00;;;;;;5055163;28;20911;-74
2021/12/10 11:40:40;;;;;;;23.90;12.60;;;4.20;1.00;;;;;;5056281;28;20920;-74
2021/12/10 11:49:03;;;;;;;31.80;13.30;;;4.20;1.00;;;;;;5055969;28;20389;-69
2021/12/10 11:51:54;;;;;;;25.77;13.13;;;4.20;1.00;;;;;;5056063;28;20428;-73
2021/12/10 11:54:25;;;;;;;27.33;12.77;;;4.30;1.00;;;;;;5022366;28;20451;-73
2021/12/10 11:57:02;;;;;;;33.07;14.10;;;4.20;1.00;;;;;;5035506;28;20438;-68
2021/12/10 11:59:35;;;;;;;24.97;13.90;;;4.20;1.00;;;;;;5036431;28;20398;-74
2021/12/10 12:02:06;;;;;;;26.70;13.10;;;4.30;1.00;;;;;;5041601;28;20419;-74
2021/12/10 12:04:32;;;;;;;36.60;13.57;;;4.30;1.00;;;;;;5035525;28;20424;-68
2021/12/10 12:07:40;;;;;;;26.27;14.00;;;4.30;1.00;;;;;;5035078;28;20504;-71
2021/12/10 12:10:05;;;;;;;23.27;11.87;;;4.40;1.00;;;;;;5033620;28;20572;-67
2021/12/10 12:12:39;;;;;;;26.17;12.80;;;4.40;1.00;;;;;;5019199;28;20468;-68
2021/12/10 12:15:18;;;;;;;21.90;13.07;;;4.40;1.00;;;;;;5035247;28;20226;-68
2021/12/10 12:17:47;;;;;;;27.77;16.43;;;4.30;1.00;;;;;;5035496;28;20429;-67
2021/12/10 12:27:15;;;;;;;36.10;16.03;;;4.30;1.00;;;;;;5034288;28;20484;-74
2021/12/10 12:29:47;;;;;;;25.73;14.10;;;4.20;1.00;;;;;;5035131;28;20926;-74
2021/12/10 12:32:23;;;;;;;31.87;14.50;;;4.30;1.00;;;;;;5034357;28;20412;-68
2021/12/10 12:34:49;;;;;;;24.50;13.10;;;4.40;1.00;;;;;;5035118;28;20460;-67
2021/12/10 12:37:17;;;;;;;32.43;11.10;;;4.40;1.00;;;;;;5035002;28;20967;-68
2021/12/10 12:39:56;;;;;;;31.83;14.70;;;4.40;1.00;;;;;;5034835;28;20401;-74
2021/12/10 12:42:46;;;;;;;22.40;11.77;;;4.40;1.00;;;;;;5032873;28;20501;-68
2021/12/10 12:45:19;;;;;;;28.63;14.80;;;4.40;1.00;;;;;;5031376;28;20432;-68
2021/12/10 12:47:48;;;;;;;18.60;12.37;;;4.40;1.00;;;;;;5023399;28;20439;-74
2021/12/10 12:50:27;;;;;;;19.37;11.80;;;4.30;1.00;;;;;;5034995;28;20463;-74
2021/12/10 12:53:00;;;;;;;30.70;12.87;;;4.30;1.00;;;;;;5033677;28;20451;-74
2021/12/10 12:55:49;;;;;;;31.00;15.03;;;4.30;1.00;;;;;;5034512;28;20510;-74
2021/12/10 12:58:35;;;;;;;28.87;13.70;;;4.30;1.00;;;;;;5034595;28;20468;-74
2021/12/10 13:01:23;;;;;;;22.27;12.03;;;4.30;1.00;;;;;;5034603;28;20435;-69
2021/12/10 13:03:57;;;;;;;27.30;13.90;;;4.30;1.00;;;;;;5031278;28;20413;-74
2021/12/10 13:06:37;;;;;;;26.73;12.27;;;4.40;1.00;;;;;;5042994;28;20440;-68
2021/12/10 13:09:23;;;;;;;27.53;13.37;;;4.40;1.00;;;;;;5034577;28;20551;-73
2021/12/10 13:12:04;;;;;;;26.47;13.00;;;4.50;1.00;;;;;;5022253;28;20449;-68
2021/12/10 13:14:45;;;;;;;23.00;11.80;;;4.30;1.00;;;;;;5013888;28;20960;-69
2021/12/10 13:17:15;;;;;;;24.93;12.43;;;4.40;1.00;;;;;;5022954;28;20520;-74
2021/12/10 13:19:40;;;;;;;20.87;12.07;;;4.40;1.00;;;;;;5033917;28;20395;-68